sensor_id;sensor_type;location;lat;lon;timestamp;pressure;altitude;pressure_sealevel;temperature;humidity
13581;BME280;6861;46.170;7.222;2023-04-03T00:01:00;96182.50;;;10.34;54.24
13581;BME280;6861;46.170;7.222;2023-04-03T00:03:29;96185.38;;;10.38;54.37
13581;BME280;6861;46.170;7.222;2023-04-03T00:05:57;96190.59;;;10.43;54.20
13581;BME280;6861;46.170;7.222;2023-04-03T00:08:26;96182.50;;;10.44;54.10
13581;BME280;6861;46.170;7.222;2023-04-03T00:10:54;96187.97;;;10.43;53.99
13581;BME280;6861;46.170;7.222;2023-04-03T00:13:22;96192.41;;;10.42;54.23
13581;BME280;6861;46.170;7.222;2023-04-03T00:15:51;96187.47;;;10.36;53.92
13581;BME280;6861;46.170;7.222;2023-04-03T00:18:19;96191.34;;;10.28;54.77
13581;BME280;6861;46.170;7.222;2023-04-03T00:20:49;96192.38;;;10.22;54.84
13581;BME280;6861;46.170;7.222;2023-04-03T00:23:17;96184.00;;;10.20;54.53
13581;BME280;6861;46.170;7.222;2023-04-03T00:25:45;96188.72;;;10.23;54.29
13581;BME280;6861;46.170;7.222;2023-04-03T00:28:13;96190.03;;;10.26;54.29
13581;BME280;6861;46.170;7.222;2023-04-03T00:30:41;96189.00;;;10.27;54.38
13581;BME280;6861;46.170;7.222;2023-04-03T00:33:11;96184.56;;;10.27;54.38
13581;BME280;6861;46.170;7.222;2023-04-03T00:35:40;96190.84;;;10.31;54.44
13581;BME280;6861;46.170;7.222;2023-04-03T00:38:09;96184.03;;;10.30;54.36
13581;BME280;6861;46.170;7.222;2023-04-03T00:40:41;96178.03;;;10.35;54.30
13581;BME280;6861;46.170;7.222;2023-04-03T00:43:12;96166.81;;;10.39;54.09
13581;BME280;6861;46.170;7.222;2023-04-03T00:45:42;96166.03;;;10.39;53.91
13581;BME280;6861;46.170;7.222;2023-04-03T00:48:14;96170.47;;;10.38;54.07
13581;BME280;6861;46.170;7.222;2023-04-03T00:50:44;96161.31;;;10.36;54.08
13581;BME280;6861;46.170;7.222;2023-04-03T00:53:17;96164.97;;;10.35;54.30
13581;BME280;6861;46.170;7.222;2023-04-03T00:55:47;96167.84;;;10.38;54.22
13581;BME280;6861;46.170;7.222;2023-04-03T00:58:17;96163.13;;;10.45;54.12
13581;BME280;6861;46.170;7.222;2023-04-03T01:00:50;96161.31;;;10.46;54.26
13581;BME280;6861;46.170;7.222;2023-04-03T01:03:23;96158.69;;;10.46;54.14
13581;BME280;6861;46.170;7.222;2023-04-03T01:05:51;96165.25;;;10.38;54.30
13581;BME280;6861;46.170;7.222;2023-04-03T01:08:21;96163.38;;;10.29;54.52
13581;BME280;6861;46.170;7.222;2023-04-03T01:10:49;96164.69;;;10.31;54.59
13581;BME280;6861;46.170;7.222;2023-04-03T01:13:22;96162.59;;;10.33;54.48
13581;BME280;6861;46.170;7.222;2023-04-03T01:15:51;96170.97;;;10.35;54.76
13581;BME280;6861;46.170;7.222;2023-04-03T01:18:19;96162.09;;;10.36;54.53
13581;BME280;6861;46.170;7.222;2023-04-03T01:24:08;96164.19;;;10.44;54.16
13581;BME280;6861;46.170;7.222;2023-04-03T01:26:39;96158.16;;;10.49;54.05
13581;BME280;6861;46.170;7.222;2023-04-03T01:29:08;96158.97;;;10.49;54.39
13581;BME280;6861;46.170;7.222;2023-04-03T01:31:46;96164.72;;;10.51;54.87
13581;BME280;6861;46.170;7.222;2023-04-03T01:34:15;96156.88;;;10.57;54.49
13581;BME280;6861;46.170;7.222;2023-04-03T01:36:43;96160.28;;;10.57;54.45
13581;BME280;6861;46.170;7.222;2023-04-03T01:39:11;96158.97;;;10.60;54.26
13581;BME280;6861;46.170;7.222;2023-04-03T01:41:39;96160.28;;;10.62;53.94
13581;BME280;6861;46.170;7.222;2023-04-03T01:44:08;96163.16;;;10.61;53.93
13581;BME280;6861;46.170;7.222;2023-04-03T01:46:36;96164.19;;;10.55;54.10
13581;BME280;6861;46.170;7.222;2023-04-03T01:49:06;96152.69;;;10.50;54.48
13581;BME280;6861;46.170;7.222;2023-04-03T01:51:34;96161.56;;;10.49;54.47
13581;BME280;6861;46.170;7.222;2023-04-03T01:54:02;96161.56;;;10.44;54.60
13581;BME280;6861;46.170;7.222;2023-04-03T01:56:30;96157.63;;;10.42;54.31
13581;BME280;6861;46.170;7.222;2023-04-03T01:58:58;96152.41;;;10.42;54.72
13581;BME280;6861;46.170;7.222;2023-04-03T02:01:27;96157.13;;;10.45;54.35
13581;BME280;6861;46.170;7.222;2023-04-03T02:03:55;96152.13;;;10.43;54.96
13581;BME280;6861;46.170;7.222;2023-04-03T02:06:24;96150.56;;;10.42;54.62
13581;BME280;6861;46.170;7.222;2023-04-03T02:08:53;96150.06;;;10.45;54.43
13581;BME280;6861;46.170;7.222;2023-04-03T02:11:21;96152.66;;;10.45;54.33
13581;BME280;6861;46.170;7.222;2023-04-03T02:13:49;96149.00;;;10.41;54.62
13581;BME280;6861;46.170;7.222;2023-04-03T02:16:17;96149.00;;;10.36;54.77
13581;BME280;6861;46.170;7.222;2023-04-03T02:18:45;96146.41;;;10.36;54.71
13581;BME280;6861;46.170;7.222;2023-04-03T02:21:13;96146.41;;;10.36;54.96
13581;BME280;6861;46.170;7.222;2023-04-03T02:23:43;96141.16;;;10.41;54.80
13581;BME280;6861;46.170;7.222;2023-04-03T02:26:12;96149.25;;;10.45;54.76
13581;BME280;6861;46.170;7.222;2023-04-03T02:28:41;96151.38;;;10.48;54.53
13581;BME280;6861;46.170;7.222;2023-04-03T02:31:10;96152.94;;;10.54;54.65
13581;BME280;6861;46.170;7.222;2023-04-03T02:33:38;96145.63;;;10.56;54.61
13581;BME280;6861;46.170;7.222;2023-04-03T02:36:07;96150.34;;;10.59;54.81
13581;BME280;6861;46.170;7.222;2023-04-03T02:38:36;96149.81;;;10.62;54.74
13581;BME280;6861;46.170;7.222;2023-04-03T02:41:07;96152.97;;;10.64;54.07
13581;BME280;6861;46.170;7.222;2023-04-03T02:43:36;96145.91;;;10.60;54.41
13581;BME280;6861;46.170;7.222;2023-04-03T02:46:04;96157.66;;;10.57;54.52
13581;BME280;6861;46.170;7.222;2023-04-03T02:48:33;96143.28;;;10.55;54.78
13581;BME280;6861;46.170;7.222;2023-04-03T02:51:01;96140.13;;;10.63;54.43
13581;BME280;6861;46.170;7.222;2023-04-03T02:53:30;96148.53;;;10.70;54.46
13581;BME280;6861;46.170;7.222;2023-04-03T02:55:58;96131.25;;;10.74;54.40
13581;BME280;6861;46.170;7.222;2023-04-03T02:58:27;96139.09;;;10.74;54.25
13581;BME280;6861;46.170;7.222;2023-04-03T03:00:55;96140.16;;;10.73;54.78
13581;BME280;6861;46.170;7.222;2023-04-03T03:03:23;96137.78;;;10.71;55.03
13581;BME280;6861;46.170;7.222;2023-04-03T03:06:01;96138.31;;;10.78;54.66
13581;BME280;6861;46.170;7.222;2023-04-03T03:08:29;96137.81;;;10.81;54.81
13581;BME280;6861;46.170;7.222;2023-04-03T03:10:57;96134.66;;;10.84;54.40
13581;BME280;6861;46.170;7.222;2023-04-03T03:13:26;96142.78;;;10.88;54.79
13581;BME280;6861;46.170;7.222;2023-04-03T03:15:55;96136.50;;;10.89;55.02
13581;BME280;6861;46.170;7.222;2023-04-03T03:18:23;96133.88;;;10.89;54.86
13581;BME280;6861;46.170;7.222;2023-04-03T03:20:52;96130.22;;;10.85;54.79
13581;BME280;6861;46.170;7.222;2023-04-03T03:23:21;96130.47;;;10.83;54.64
13581;BME280;6861;46.170;7.222;2023-04-03T03:25:54;96129.16;;;10.86;54.92
13581;BME280;6861;46.170;7.222;2023-04-03T03:28:23;96133.09;;;10.89;54.78
13581;BME280;6861;46.170;7.222;2023-04-03T03:30:53;96131.25;;;10.89;55.03
13581;BME280;6861;46.170;7.222;2023-04-03T03:33:21;96126.28;;;10.88;55.08
13581;BME280;6861;46.170;7.222;2023-04-03T03:35:49;96114.50;;;10.85;54.91
13581;BME280;6861;46.170;7.222;2023-04-03T03:38:18;96116.59;;;10.88;55.08
13581;BME280;6861;46.170;7.222;2023-04-03T03:40:47;96118.16;;;10.89;55.50
13581;BME280;6861;46.170;7.222;2023-04-03T03:43:15;96109.53;;;10.89;55.09
13581;BME280;6861;46.170;7.222;2023-04-03T03:45:44;96113.47;;;10.86;55.16
13581;BME280;6861;46.170;7.222;2023-04-03T03:48:14;96115.56;;;10.84;55.52
13581;BME280;6861;46.170;7.222;2023-04-03T03:50:42;96118.16;;;10.84;55.24
13581;BME280;6861;46.170;7.222;2023-04-03T03:53:10;96116.88;;;10.81;55.09
13581;BME280;6861;46.170;7.222;2023-04-03T03:55:38;96124.97;;;10.80;55.46
13581;BME280;6861;46.170;7.222;2023-04-03T03:58:06;96125.25;;;10.83;54.94
13581;BME280;6861;46.170;7.222;2023-04-03T04:00:35;96119.22;;;10.83;54.70
13581;BME280;6861;46.170;7.222;2023-04-03T04:03:03;96121.31;;;10.81;54.82
13581;BME280;6861;46.170;7.222;2023-04-03T04:05:33;96125.50;;;10.77;55.11
13581;BME280;6861;46.170;7.222;2023-04-03T04:08:01;96135.69;;;10.73;55.54
13581;BME280;6861;46.170;7.222;2023-04-03T04:10:30;96127.31;;;10.71;55.34
13581;BME280;6861;46.170;7.222;2023-04-03T04:12:58;96129.69;;;10.73;55.35
13581;BME280;6861;46.170;7.222;2023-04-03T04:15:26;96122.34;;;10.75;54.98
13581;BME280;6861;46.170;7.222;2023-04-03T04:17:54;96134.91;;;10.78;55.27
13581;BME280;6861;46.170;7.222;2023-04-03T04:20:23;96125.75;;;10.75;55.59
13581;BME280;6861;46.170;7.222;2023-04-03T04:22:53;96121.03;;;10.72;55.32
13581;BME280;6861;46.170;7.222;2023-04-03T04:25:21;96121.84;;;10.73;55.13
13581;BME280;6861;46.170;7.222;2023-04-03T04:27:49;96117.66;;;10.77;55.62
13581;BME280;6861;46.170;7.222;2023-04-03T04:30:17;96124.97;;;10.80;55.25
13581;BME280;6861;46.170;7.222;2023-04-03T04:32:45;96119.22;;;10.83;55.02
13581;BME280;6861;46.170;7.222;2023-04-03T04:35:14;96121.31;;;10.86;55.24
13581;BME280;6861;46.170;7.222;2023-04-03T04:37:42;96124.44;;;10.83;55.30
13581;BME280;6861;46.170;7.222;2023-04-03T04:40:13;96124.72;;;10.76;55.39
13581;BME280;6861;46.170;7.222;2023-04-03T04:42:41;96113.44;;;10.71;55.53
13581;BME280;6861;46.170;7.222;2023-04-03T04:45:10;96120.25;;;10.72;55.73
13581;BME280;6861;46.170;7.222;2023-04-03T04:47:38;96119.72;;;10.70;55.45
13581;BME280;6861;46.170;7.222;2023-04-03T04:50:07;96115.03;;;10.72;55.47
13581;BME280;6861;46.170;7.222;2023-04-03T04:52:35;96115.03;;;10.67;55.56
13581;BME280;6861;46.170;7.222;2023-04-03T04:55:04;96122.34;;;10.65;55.97
13581;BME280;6861;46.170;7.222;2023-04-03T04:57:34;96118.44;;;10.67;55.64
13581;BME280;6861;46.170;7.222;2023-04-03T05:00:03;96117.66;;;10.72;55.95
13581;BME280;6861;46.170;7.222;2023-04-03T05:02:31;96118.94;;;10.69;55.93
13581;BME280;6861;46.170;7.222;2023-04-03T05:04:59;96115.53;;;10.64;55.82
13581;BME280;6861;46.170;7.222;2023-04-03T05:07:30;96121.81;;;10.58;55.85
13581;BME280;6861;46.170;7.222;2023-04-03T05:09:58;96122.59;;;10.58;55.83
13581;BME280;6861;46.170;7.222;2023-04-03T05:12:26;96116.06;;;10.61;55.94
13581;BME280;6861;46.170;7.222;2023-04-03T05:14:56;96119.97;;;10.58;55.89
13581;BME280;6861;46.170;7.222;2023-04-03T05:17:24;96118.94;;;10.59;56.09
13581;BME280;6861;46.170;7.222;2023-04-03T05:19:52;96122.88;;;10.62;56.11
13581;BME280;6861;46.170;7.222;2023-04-03T05:22:20;96122.34;;;10.65;56.14
13581;BME280;6861;46.170;7.222;2023-04-03T05:24:49;96118.16;;;10.64;56.09
13581;BME280;6861;46.170;7.222;2023-04-03T05:27:17;96117.63;;;10.62;55.85
13581;BME280;6861;46.170;7.222;2023-04-03T05:29:45;96127.56;;;10.60;55.80
13581;BME280;6861;46.170;7.222;2023-04-03T05:32:14;96119.19;;;10.63;55.96
13581;BME280;6861;46.170;7.222;2023-04-03T05:34:43;96128.09;;;10.62;56.26
13581;BME280;6861;46.170;7.222;2023-04-03T05:37:11;96122.88;;;10.62;55.80
13581;BME280;6861;46.170;7.222;2023-04-03T05:39:40;96121.28;;;10.61;55.79
13581;BME280;6861;46.170;7.222;2023-04-03T05:42:08;96124.97;;;10.60;56.35
13581;BME280;6861;46.170;7.222;2023-04-03T05:44:38;96123.91;;;10.66;55.93
13581;BME280;6861;46.170;7.222;2023-04-03T05:47:07;96121.84;;;10.73;56.17
13581;BME280;6861;46.170;7.222;2023-04-03T05:49:37;96126.28;;;10.77;55.84
13581;BME280;6861;46.170;7.222;2023-04-03T05:52:11;96127.06;;;10.78;55.76
13581;BME280;6861;46.170;7.222;2023-04-03T05:54:45;96126.53;;;10.81;56.19
13581;BME280;6861;46.170;7.222;2023-04-03T05:57:15;96127.34;;;10.81;55.69
13581;BME280;6861;46.170;7.222;2023-04-03T05:59:44;96124.97;;;10.85;55.83
13581;BME280;6861;46.170;7.222;2023-04-03T06:02:14;96126.03;;;10.94;56.19
13581;BME280;6861;46.170;7.222;2023-04-03T06:04:44;96111.63;;;10.97;55.48
13581;BME280;6861;46.170;7.222;2023-04-03T06:07:15;96126.53;;;11.01;55.68
13581;BME280;6861;46.170;7.222;2023-04-03T06:09:44;96128.13;;;11.02;55.17
13581;BME280;6861;46.170;7.222;2023-04-03T06:12:13;96126.81;;;11.05;55.27
13581;BME280;6861;46.170;7.222;2023-04-03T06:14:41;96122.63;;;11.04;55.80
13581;BME280;6861;46.170;7.222;2023-04-03T06:17:09;96128.38;;;11.06;55.99
13581;BME280;6861;46.170;7.222;2023-04-03T06:19:39;96128.38;;;11.11;55.66
13581;BME280;6861;46.170;7.222;2023-04-03T06:22:10;96117.91;;;11.16;55.65
13581;BME280;6861;46.170;7.222;2023-04-03T06:24:39;96127.59;;;11.21;55.63
13581;BME280;6861;46.170;7.222;2023-04-03T06:27:09;96126.00;;;11.25;55.04
13581;BME280;6861;46.170;7.222;2023-04-03T06:29:38;96120.22;;;11.28;55.40
13581;BME280;6861;46.170;7.222;2023-04-03T06:32:06;96124.91;;;11.31;55.55
13581;BME280;6861;46.170;7.222;2023-04-03T06:34:35;96129.09;;;11.37;54.97
13581;BME280;6861;46.170;7.222;2023-04-03T06:37:04;96131.47;;;11.38;55.52
13581;BME280;6861;46.170;7.222;2023-04-03T06:39:34;96125.44;;;11.38;54.90
13581;BME280;6861;46.170;7.222;2023-04-03T06:42:02;96125.44;;;11.38;54.90
13581;BME280;6861;46.170;7.222;2023-04-03T06:44:31;96134.84;;;11.44;54.82
13581;BME280;6861;46.170;7.222;2023-04-03T06:47:01;96130.66;;;11.48;54.75
13581;BME280;6861;46.170;7.222;2023-04-03T06:49:29;96125.41;;;11.48;54.35
13581;BME280;6861;46.170;7.222;2023-04-03T06:51:58;96128.81;;;11.43;54.96
13581;BME280;6861;46.170;7.222;2023-04-03T06:54:28;96133.81;;;11.40;54.59
13581;BME280;6861;46.170;7.222;2023-04-03T06:56:58;96131.19;;;11.35;54.60
13581;BME280;6861;46.170;7.222;2023-04-03T06:59:27;96127.00;;;11.34;55.11
13581;BME280;6861;46.170;7.222;2023-04-03T07:01:55;96130.94;;;11.36;54.34
13581;BME280;6861;46.170;7.222;2023-04-03T07:04:25;96132.75;;;11.41;54.57
13581;BME280;6861;46.170;7.222;2023-04-03T07:06:54;96122.53;;;11.49;54.00
13581;BME280;6861;46.170;7.222;2023-04-03T07:09:23;96134.84;;;11.54;54.78
13581;BME280;6861;46.170;7.222;2023-04-03T07:11:51;96130.63;;;11.58;55.01
13581;BME280;6861;46.170;7.222;2023-04-03T07:14:22;96119.34;;;11.58;55.09
13581;BME280;6861;46.170;7.222;2023-04-03T07:16:50;96114.66;;;11.55;54.15
13581;BME280;6861;46.170;7.222;2023-04-03T07:19:18;96122.22;;;11.61;54.12
13581;BME280;6861;46.170;7.222;2023-04-03T07:21:48;96115.38;;;11.70;54.42
13581;BME280;6861;46.170;7.222;2023-04-03T07:24:16;96115.13;;;11.82;54.70
13581;BME280;6861;46.170;7.222;2023-04-03T07:26:44;96113.78;;;11.85;54.04
13581;BME280;6861;46.170;7.222;2023-04-03T07:29:16;96112.22;;;11.89;54.41
13581;BME280;6861;46.170;7.222;2023-04-03T07:31:45;96111.13;;;11.95;53.99
13581;BME280;6861;46.170;7.222;2023-04-03T07:34:14;96108.50;;;12.00;53.91
13581;BME280;6861;46.170;7.222;2023-04-03T07:36:42;96108.72;;;12.03;53.39
13581;BME280;6861;46.170;7.222;2023-04-03T07:39:10;96104.53;;;12.07;53.13
13581;BME280;6861;46.170;7.222;2023-04-03T07:41:38;96108.97;;;12.12;52.99
13581;BME280;6861;46.170;7.222;2023-04-03T07:44:06;96103.72;;;12.12;53.03
13581;BME280;6861;46.170;7.222;2023-04-03T07:46:36;96108.97;;;12.12;53.77
13581;BME280;6861;46.170;7.222;2023-04-03T07:49:06;96107.38;;;12.11;52.77
13581;BME280;6861;46.170;7.222;2023-04-03T07:51:34;96103.13;;;12.15;52.90
13581;BME280;6861;46.170;7.222;2023-04-03T07:54:03;96104.44;;;12.18;53.06
13581;BME280;6861;46.170;7.222;2023-04-03T07:56:31;96103.88;;;12.26;53.42
13581;BME280;6861;46.170;7.222;2023-04-03T07:59:00;96101.75;;;12.28;52.87
13581;BME280;6861;46.170;7.222;2023-04-03T08:01:28;96100.16;;;12.32;52.25
13581;BME280;6861;46.170;7.222;2023-04-03T08:03:59;96094.66;;;12.33;52.25
13581;BME280;6861;46.170;7.222;2023-04-03T08:06:30;96092.28;;;12.32;51.62
13581;BME280;6861;46.170;7.222;2023-04-03T08:09:12;96084.19;;;12.28;51.71
13581;BME280;6861;46.170;7.222;2023-04-03T08:11:41;96090.44;;;12.32;51.70
13581;BME280;6861;46.170;7.222;2023-04-03T08:14:09;96085.47;;;12.31;51.48
13581;BME280;6861;46.170;7.222;2023-04-03T08:16:43;96081.00;;;12.31;51.63
13581;BME280;6861;46.170;7.222;2023-04-03T08:19:11;96074.69;;;12.37;51.30
13581;BME280;6861;46.170;7.222;2023-04-03T08:21:53;96069.13;;;12.44;51.31
13581;BME280;6861;46.170;7.222;2023-04-03T08:24:22;96078.22;;;12.57;51.49
13581;BME280;6861;46.170;7.222;2023-04-03T08:26:50;96075.50;;;12.67;51.05
13581;BME280;6861;46.170;7.222;2023-04-03T08:29:18;96068.03;;;12.84;50.94
13581;BME280;6861;46.170;7.222;2023-04-03T08:31:47;96073.47;;;13.22;51.47
13581;BME280;6861;46.170;7.222;2023-04-03T08:34:16;96062.97;;;13.69;50.23
13581;BME280;6861;46.170;7.222;2023-04-03T08:36:45;96065.53;;;14.12;49.72
13581;BME280;6861;46.170;7.222;2023-04-03T08:39:14;96056.88;;;14.30;48.42
13581;BME280;6861;46.170;7.222;2023-04-03T08:41:43;96062.41;;;14.29;48.17
13581;BME280;6861;46.170;7.222;2023-04-03T08:44:23;96064.19;;;14.33;48.63
13581;BME280;6861;46.170;7.222;2023-04-03T08:47:00;96062.34;;;14.34;48.26
13581;BME280;6861;46.170;7.222;2023-04-03T08:49:33;96058.31;;;14.41;48.01
13581;BME280;6861;46.170;7.222;2023-04-03T08:52:05;96064.78;;;14.49;48.04
13581;BME280;6861;46.170;7.222;2023-04-03T08:54:50;96058.59;;;14.59;48.45
13581;BME280;6861;46.170;7.222;2023-04-03T08:57:26;96056.28;;;14.71;48.10
13581;BME280;6861;46.170;7.222;2023-04-03T08:59:58;96043.44;;;14.97;47.61
13581;BME280;6861;46.170;7.222;2023-04-03T09:02:33;96049.16;;;15.18;47.10
13581;BME280;6861;46.170;7.222;2023-04-03T09:05:05;96053.47;;;15.41;46.72
13581;BME280;6861;46.170;7.222;2023-04-03T09:07:41;96052.28;;;15.61;46.65
13581;BME280;6861;46.170;7.222;2023-04-03T09:10:14;96048.19;;;15.68;46.00
13581;BME280;6861;46.170;7.222;2023-04-03T09:12:46;96046.91;;;15.80;46.25
13581;BME280;6861;46.170;7.222;2023-04-03T09:15:19;96047.78;;;15.89;46.09
13581;BME280;6861;46.170;7.222;2023-04-03T09:18:05;96037.59;;;15.96;45.75
13581;BME280;6861;46.170;7.222;2023-04-03T09:20:44;96034.75;;;16.06;45.60
13581;BME280;6861;46.170;7.222;2023-04-03T09:23:19;96029.94;;;16.08;45.26
13581;BME280;6861;46.170;7.222;2023-04-03T09:25:53;96025.84;;;16.02;45.10
13581;BME280;6861;46.170;7.222;2023-04-03T09:28:24;96018.63;;;15.94;45.01
13581;BME280;6861;46.170;7.222;2023-04-03T09:30:54;96012.56;;;15.93;44.47
13581;BME280;6861;46.170;7.222;2023-04-03T09:33:23;96011.31;;;15.91;44.11
13581;BME280;6861;46.170;7.222;2023-04-03T09:35:52;96013.19;;;15.77;44.07
13581;BME280;6861;46.170;7.222;2023-04-03T09:38:21;96007.06;;;15.67;44.31
13581;BME280;6861;46.170;7.222;2023-04-03T09:41:05;96018.06;;;15.83;44.11
13581;BME280;6861;46.170;7.222;2023-04-03T09:43:34;96006.66;;;16.10;43.81
13581;BME280;6861;46.170;7.222;2023-04-03T09:46:25;96005.97;;;16.41;43.05
13581;BME280;6861;46.170;7.222;2023-04-03T09:48:57;95996.84;;;16.69;42.84
13581;BME280;6861;46.170;7.222;2023-04-03T09:51:35;95991.88;;;16.98;42.38
13581;BME280;6861;46.170;7.222;2023-04-03T09:54:25;95996.47;;;17.24;41.48
13581;BME280;6861;46.170;7.222;2023-04-03T09:56:56;95992.31;;;17.40;41.63
13581;BME280;6861;46.170;7.222;2023-04-03T09:59:26;95981.31;;;17.55;40.94
13581;BME280;6861;46.170;7.222;2023-04-03T10:01:59;95977.31;;;17.66;40.48
13581;BME280;6861;46.170;7.222;2023-04-03T10:04:38;95967.66;;;17.71;40.22
13581;BME280;6861;46.170;7.222;2023-04-03T10:07:28;95971.09;;;17.80;40.33
13581;BME280;6861;46.170;7.222;2023-04-03T10:09:58;95964.09;;;17.92;40.87
13581;BME280;6861;46.170;7.222;2023-04-03T10:12:28;95957.72;;;18.02;40.03
13581;BME280;6861;46.170;7.222;2023-04-03T10:14:58;95956.47;;;18.08;39.90
13581;BME280;6861;46.170;7.222;2023-04-03T10:17:48;95954.59;;;18.17;40.22
13581;BME280;6861;46.170;7.222;2023-04-03T10:20:27;95949.13;;;18.22;39.45
13581;BME280;6861;46.170;7.222;2023-04-03T10:23:05;95953.34;;;18.15;39.55
13581;BME280;6861;46.170;7.222;2023-04-03T10:25:42;95945.25;;;18.11;38.64
13581;BME280;6861;46.170;7.222;2023-04-03T10:28:19;95939.34;;;18.14;38.83
13581;BME280;6861;46.170;7.222;2023-04-03T10:30:55;95933.41;;;18.17;38.44
13581;BME280;6861;46.170;7.222;2023-04-03T10:33:34;95937.59;;;18.27;38.12
13581;BME280;6861;46.170;7.222;2023-04-03T10:36:12;95937.09;;;18.33;38.35
13581;BME280;6861;46.170;7.222;2023-04-03T10:38:51;95918.41;;;18.39;38.38
13581;BME280;6861;46.170;7.222;2023-04-03T10:41:28;95922.59;;;18.40;38.01
13581;BME280;6861;46.170;7.222;2023-04-03T10:44:10;95919.50;;;18.38;37.95
13581;BME280;6861;46.170;7.222;2023-04-03T10:46:44;95928.84;;;18.35;38.37
13581;BME280;6861;46.170;7.222;2023-04-03T10:49:25;95910.63;;;18.33;37.99
13581;BME280;6861;46.170;7.222;2023-04-03T10:51:59;95913.75;;;18.27;38.35
13581;BME280;6861;46.170;7.222;2023-04-03T10:54:36;95917.53;;;18.17;38.52
13581;BME280;6861;46.170;7.222;2023-04-03T10:57:08;95898.53;;;18.15;38.41
13581;BME280;6861;46.170;7.222;2023-04-03T10:59:43;95903.66;;;18.12;38.37
13581;BME280;6861;46.170;7.222;2023-04-03T11:02:17;95897.28;;;18.13;38.38
13581;BME280;6861;46.170;7.222;2023-04-03T11:04:52;95889.19;;;18.09;38.13
13581;BME280;6861;46.170;7.222;2023-04-03T11:07:23;95884.34;;;18.11;37.79
13581;BME280;6861;46.170;7.222;2023-04-03T11:09:56;95883.09;;;18.09;37.78
13581;BME280;6861;46.170;7.222;2023-04-03T11:12:30;95878.28;;;18.02;38.19
13581;BME280;6861;46.170;7.222;2023-04-03T11:15:03;95881.72;;;17.94;38.68
13581;BME280;6861;46.170;7.222;2023-04-03T11:17:36;95871.91;;;17.86;38.99
13581;BME280;6861;46.170;7.222;2023-04-03T11:20:14;95868.97;;;17.79;38.45
13581;BME280;6861;46.170;7.222;2023-04-03T11:22:48;95862.88;;;17.69;38.53
13581;BME280;6861;46.170;7.222;2023-04-03T11:25:21;95861.47;;;17.63;38.90
13581;BME280;6861;46.170;7.222;2023-04-03T11:27:54;95844.50;;;17.56;38.66
13581;BME280;6861;46.170;7.222;2023-04-03T11:30:28;95846.50;;;17.50;39.04
13581;BME280;6861;46.170;7.222;2023-04-03T11:33:19;95842.47;;;17.44;38.21
13581;BME280;6861;46.170;7.222;2023-04-03T11:35:51;95838.09;;;17.40;38.49
13581;BME280;6861;46.170;7.222;2023-04-03T11:38:25;95833.13;;;17.38;39.12
13581;BME280;6861;46.170;7.222;2023-04-03T11:40:56;95830.66;;;17.33;38.59
13581;BME280;6861;46.170;7.222;2023-04-03T11:43:28;95836.09;;;17.28;39.00
13581;BME280;6861;46.170;7.222;2023-04-03T11:45:59;95821.16;;;17.23;38.46
13581;BME280;6861;46.170;7.222;2023-04-03T11:48:52;95819.00;;;17.25;38.79
13581;BME280;6861;46.170;7.222;2023-04-03T11:51:49;95814.47;;;17.26;38.88
13581;BME280;6861;46.170;7.222;2023-04-03T11:54:47;95807.94;;;17.23;38.46
13581;BME280;6861;46.170;7.222;2023-04-03T11:57:47;95811.03;;;17.17;38.63
13581;BME280;6861;46.170;7.222;2023-04-03T12:00:49;95810.13;;;17.13;39.18
13581;BME280;6861;46.170;7.222;2023-04-03T12:06:54;95791.91;;;17.02;39.10
13581;BME280;6861;46.170;7.222;2023-04-03T12:09:29;95795.63;;;17.01;39.68
13581;BME280;6861;46.170;7.222;2023-04-03T12:12:01;95780.84;;;17.00;39.20
13581;BME280;6861;46.170;7.222;2023-04-03T12:14:29;95777.28;;;17.05;39.63
13581;BME280;6861;46.170;7.222;2023-04-03T12:16:57;95778.22;;;17.09;39.01
13581;BME280;6861;46.170;7.222;2023-04-03T12:19:33;95776.34;;;17.10;38.97
13581;BME280;6861;46.170;7.222;2023-04-03T12:22:17;95767.97;;;17.08;38.75
13581;BME280;6861;46.170;7.222;2023-04-03T12:24:50;95766.88;;;17.09;38.97
13581;BME280;6861;46.170;7.222;2023-04-03T12:27:23;95758.78;;;17.14;39.08
13581;BME280;6861;46.170;7.222;2023-04-03T12:29:55;95755.06;;;17.15;38.61
13581;BME280;6861;46.170;7.222;2023-04-03T12:32:35;95736.38;;;17.20;38.47
13581;BME280;6861;46.170;7.222;2023-04-03T12:35:20;95744.78;;;17.22;38.36
13581;BME280;6861;46.170;7.222;2023-04-03T12:38:18;95731.25;;;17.23;38.31
13581;BME280;6861;46.170;7.222;2023-04-03T12:40:57;95725.34;;;17.26;38.49
13581;BME280;6861;46.170;7.222;2023-04-03T12:43:46;95731.72;;;17.25;38.08
13581;BME280;6861;46.170;7.222;2023-04-03T12:46:18;95724.88;;;17.24;38.40
13581;BME280;6861;46.170;7.222;2023-04-03T12:48:50;95719.91;;;17.23;38.60
13581;BME280;6861;46.170;7.222;2023-04-03T12:51:29;95728.94;;;17.22;38.43
13581;BME280;6861;46.170;7.222;2023-04-03T12:54:02;95716.16;;;17.24;38.66
13581;BME280;6861;46.170;7.222;2023-04-03T12:56:32;95725.19;;;17.23;38.22
13581;BME280;6861;46.170;7.222;2023-04-03T12:59:13;95713.84;;;17.22;37.77
13581;BME280;6861;46.170;7.222;2023-04-03T13:01:44;95706.38;;;17.24;37.75
13581;BME280;6861;46.170;7.222;2023-04-03T13:04:21;95701.25;;;17.19;38.20
13581;BME280;6861;46.170;7.222;2023-04-03T13:06:52;95693.16;;;17.16;38.55
13581;BME280;6861;46.170;7.222;2023-04-03T13:09:22;95706.69;;;17.14;38.63
13581;BME280;6861;46.170;7.222;2023-04-03T13:11:56;95706.69;;;17.14;38.61
13581;BME280;6861;46.170;7.222;2023-04-03T13:14:27;95706.06;;;17.17;38.56
13581;BME280;6861;46.170;7.222;2023-04-03T13:16:58;95693.16;;;17.16;38.35
13581;BME280;6861;46.170;7.222;2023-04-03T13:19:27;95693.16;;;17.16;38.48
13581;BME280;6861;46.170;7.222;2023-04-03T13:22:02;95697.66;;;17.15;37.94
13581;BME280;6861;46.170;7.222;2023-04-03T13:24:35;95695.47;;;17.17;37.83
13581;BME280;6861;46.170;7.222;2023-04-03T13:27:05;95689.41;;;17.17;37.60
13581;BME280;6861;46.170;7.222;2023-04-03T13:29:35;95688.34;;;17.09;37.61
13581;BME280;6861;46.170;7.222;2023-04-03T13:32:05;95695.66;;;17.03;37.63
13581;BME280;6861;46.170;7.222;2023-04-03T13:34:37;95677.31;;;17.07;37.54
13581;BME280;6861;46.170;7.222;2023-04-03T13:37:20;95685.38;;;17.11;37.49
13581;BME280;6861;46.170;7.222;2023-04-03T13:39:58;95684.28;;;17.12;37.85